Time;durP1;ratioP1;P1;durP2;ratioP2;P2;SDS_P1;SDS_P2;PMS_P1;PMS_P2;Temp;Humidity;BMP_temperature;BMP_pressure;BME280_temperature;BME280_humidity;BME280_pressure;Samples;Min_cycle;Max_cycle;Signal;HPM_P1;HPM_P2
2023/12/15 00:00:24;;;;;;;9.85;9.13;;;;;;;;;;6094190;29;20060;-95
2023/12/15 00:03:27;;;;;;;8.32;7.72;;;;;;;;;;6093716;29;20118;-95
2023/12/15 00:06:30;;;;;;;8.85;8.38;;;;;;;;;;6084858;29;20087;-95
2023/12/15 00:09:32;;;;;;;7.68;7.20;;;;;;;;;;6078628;29;20052;-95
2023/12/15 00:12:38;;;;;;;8.57;7.97;;;;;;;;;;6073059;29;20059;-96
2023/12/15 00:15:42;;;;;;;8.45;7.85;;;;;;;;;;6094762;29;20193;-95
2023/12/15 00:18:48;;;;;;;9.02;8.48;;;;;;;;;;6075497;29;20108;-96
2023/12/15 00:21:53;;;;;;;11.43;8.73;;;;;;;;;;6095462;29;20055;-95
2023/12/15 00:25:00;;;;;;;9.75;8.10;;;;;;;;;;6095984;29;20044;-95
2023/12/15 00:28:12;;;;;;;9.07;8.27;;;;;;;;;;6079504;29;20048;-94
2023/12/15 00:31:15;;;;;;;9.27;8.20;;;;;;;;;;6093228;29;20070;-95
2023/12/15 00:34:18;;;;;;;8.20;7.70;;;;;;;;;;6095786;29;20044;-95
2023/12/15 00:37:20;;;;;;;11.05;8.80;;;;;;;;;;6075476;29;20945;-94
2023/12/15 00:40:23;;;;;;;10.35;9.63;;;;;;;;;;6094820;29;20051;-95
2023/12/15 00:43:26;;;;;;;10.30;9.45;;;;;;;;;;6091840;29;20488;-95
2023/12/15 00:46:29;;;;;;;13.73;10.10;;;;;;;;;;6072453;29;20100;-95
2023/12/15 00:49:32;;;;;;;10.38;9.55;;;;;;;;;;6093050;29;20046;-94
2023/12/15 00:52:34;;;;;;;9.65;9.05;;;;;;;;;;6077536;29;20606;-96
2023/12/15 00:55:36;;;;;;;9.30;8.35;;;;;;;;;;6056474;29;20129;-96
2023/12/15 00:58:39;;;;;;;9.35;8.75;;;;;;;;;;6093194;29;20509;-95
2023/12/15 01:01:44;;;;;;;10.45;9.65;;;;;;;;;;6094732;29;20070;-95
2023/12/15 01:04:46;;;;;;;9.68;9.02;;;;;;;;;;6096409;29;20047;-95
2023/12/15 01:07:48;;;;;;;9.57;8.98;;;;;;;;;;6078053;29;20048;-95
2023/12/15 01:10:50;;;;;;;10.02;9.23;;;;;;;;;;6094116;29;20056;-95
2023/12/15 01:13:55;;;;;;;10.95;7.70;;;;;;;;;;6093048;29;20055;-95
2023/12/15 01:16:57;;;;;;;10.20;9.38;;;;;;;;;;6093945;29;20059;-95
2023/12/15 01:19:59;;;;;;;7.72;7.32;;;;;;;;;;6076580;29;20307;-95
2023/12/15 01:23:02;;;;;;;10.85;9.98;;;;;;;;;;6091786;29;20048;-96
2023/12/15 01:26:05;;;;;;;7.05;6.70;;;;;;;;;;6092479;29;20164;-95
2023/12/15 01:29:14;;;;;;;12.07;9.18;;;;;;;;;;6092792;29;20566;-96
2023/12/15 01:32:16;;;;;;;11.02;10.02;;;;;;;;;;6092852;29;20040;-95
2023/12/15 01:35:20;;;;;;;9.77;8.88;;;;;;;;;;6081711;29;20048;-95
2023/12/15 01:38:23;;;;;;;9.98;8.50;;;;;;;;;;6093911;29;20179;-94
2023/12/15 01:41:28;;;;;;;15.23;8.73;;;;;;;;;;6078542;29;20067;-95
2023/12/15 01:44:30;;;;;;;7.88;7.43;;;;;;;;;;6091769;29;20126;-95
2023/12/15 01:47:33;;;;;;;8.70;8.23;;;;;;;;;;6092342;29;20509;-95
2023/12/15 01:50:36;;;;;;;9.88;9.02;;;;;;;;;;6091326;29;20044;-94
2023/12/15 01:53:39;;;;;;;8.82;8.10;;;;;;;;;;6093531;29;20121;-94
2023/12/15 01:56:41;;;;;;;8.65;7.93;;;;;;;;;;6092710;29;20187;-95
2023/12/15 01:59:48;;;;;;;7.78;7.28;;;;;;;;;;6075994;29;20051;-96
2023/12/15 02:02:54;;;;;;;9.48;8.88;;;;;;;;;;6093223;29;20040;-95
2023/12/15 02:05:56;;;;;;;10.65;8.95;;;;;;;;;;6098461;29;20055;-96
2023/12/15 02:08:59;;;;;;;9.07;8.43;;;;;;;;;;6076865;29;20486;-96
2023/12/15 02:12:01;;;;;;;8.77;8.27;;;;;;;;;;6092933;29;20483;-96
2023/12/15 02:15:09;;;;;;;8.63;8.02;;;;;;;;;;6076261;29;20051;-95
2023/12/15 02:18:13;;;;;;;11.90;8.55;;;;;;;;;;6091784;29;20060;-95
2023/12/15 02:21:16;;;;;;;9.60;8.63;;;;;;;;;;6085301;29;20052;-95
2023/12/15 02:24:18;;;;;;;9.32;8.55;;;;;;;;;;6093010;29;20048;-95
2023/12/15 02:27:21;;;;;;;8.05;7.47;;;;;;;;;;6077031;29;20044;-96
2023/12/15 02:30:23;;;;;;;7.20;6.80;;;;;;;;;;6075213;29;20403;-96
2023/12/15 02:33:26;;;;;;;8.68;8.02;;;;;;;;;;6076854;29;20134;-94
2023/12/15 02:36:29;;;;;;;7.03;6.45;;;;;;;;;;6080312;29;20051;-95
2023/12/15 02:39:32;;;;;;;9.30;8.63;;;;;;;;;;6074651;29;20452;-94
2023/12/15 02:42:35;;;;;;;8.90;8.23;;;;;;;;;;6075090;29;20055;-96
2023/12/15 02:45:38;;;;;;;10.02;9.05;;;;;;;;;;6092522;29;20048;-94
2023/12/15 02:48:41;;;;;;;9.25;8.55;;;;;;;;;;6065032;29;20047;-95
2023/12/15 02:51:43;;;;;;;8.88;8.38;;;;;;;;;;6092383;29;20060;-95
2023/12/15 02:54:46;;;;;;;10.65;9.38;;;;;;;;;;6090428;29;20052;-95
2023/12/15 02:57:48;;;;;;;10.18;9.27;;;;;;;;;;6090367;29;20119;-95
2023/12/15 03:00:55;;;;;;;9.63;9.00;;;;;;;;;;6092037;29;20333;-96
2023/12/15 03:04:14;;;;;;;8.55;8.02;;;;;;;;;;6085831;29;20055;-96
2023/12/15 03:07:35;;;;;;;10.32;9.50;;;;;;;;;;6066331;29;20430;-89
2023/12/15 03:10:37;;;;;;;7.88;7.47;;;;;;;;;;6095523;29;20411;-89
2023/12/15 03:13:39;;;;;;;8.48;7.75;;;;;;;;;;6090985;29;20044;-89
2023/12/15 03:16:42;;;;;;;8.35;7.80;;;;;;;;;;6080087;29;20075;-89
2023/12/15 03:19:44;;;;;;;9.13;8.50;;;;;;;;;;6100499;29;20384;-90
2023/12/15 03:22:46;;;;;;;9.20;8.60;;;;;;;;;;6096572;29;20047;-90
2023/12/15 03:25:48;;;;;;;10.40;9.73;;;;;;;;;;6078650;29;20489;-91
2023/12/15 03:28:50;;;;;;;9.30;8.80;;;;;;;;;;6079517;29;20499;-90
2023/12/15 03:31:52;;;;;;;10.02;9.23;;;;;;;;;;6097686;29;20075;-91
2023/12/15 03:34:54;;;;;;;9.15;8.48;;;;;;;;;;6094273;29;20051;-91
2023/12/15 03:37:56;;;;;;;8.85;8.15;;;;;;;;;;6097396;29;20059;-91
2023/12/15 03:40:58;;;;;;;10.23;9.55;;;;;;;;;;6086526;29;20060;-92
2023/12/15 03:44:00;;;;;;;8.50;7.90;;;;;;;;;;6098586;29;20040;-92
2023/12/15 03:47:02;;;;;;;8.13;7.45;;;;;;;;;;6077140;29;20515;-92
2023/12/15 03:50:04;;;;;;;8.38;7.88;;;;;;;;;;6096923;29;20044;-92
2023/12/15 03:53:07;;;;;;;9.95;8.93;;;;;;;;;;6081548;29;20044;-92
2023/12/15 03:56:10;;;;;;;8.95;8.18;;;;;;;;;;6076159;29;20032;-91
2023/12/15 03:59:12;;;;;;;9.50;8.80;;;;;;;;;;6084117;29;20144;-90
2023/12/15 04:02:15;;;;;;;9.00;8.30;;;;;;;;;;6080760;29;20131;-90
2023/12/15 04:05:17;;;;;;;8.98;8.32;;;;;;;;;;6071395;29;20079;-89
2023/12/15 04:08:19;;;;;;;8.93;8.13;;;;;;;;;;6091716;29;20059;-90
2023/12/15 04:11:21;;;;;;;10.55;9.65;;;;;;;;;;6095822;29;20072;-91
2023/12/15 04:14:23;;;;;;;11.43;9.20;;;;;;;;;;6083968;29;20071;-91
2023/12/15 04:17:25;;;;;;;11.18;10.25;;;;;;;;;;6097271;29;20075;-91
2023/12/15 04:20:27;;;;;;;14.85;8.77;;;;;;;;;;6098172;29;20040;-91
2023/12/15 04:23:29;;;;;;;8.05;7.20;;;;;;;;;;6097092;29;20052;-90
2023/12/15 04:26:31;;;;;;;8.43;7.88;;;;;;;;;;6097152;29;20047;-90
2023/12/15 04:29:33;;;;;;;7.93;7.35;;;;;;;;;;6080714;29;20052;-90
2023/12/15 04:32:35;;;;;;;11.23;10.60;;;;;;;;;;6085867;29;20403;-90
2023/12/15 04:35:37;;;;;;;12.32;11.30;;;;;;;;;;6093032;29;20067;-91
2023/12/15 04:38:39;;;;;;;9.85;8.82;;;;;;;;;;6096819;29;20097;-91
2023/12/15 04:41:41;;;;;;;11.15;9.73;;;;;;;;;;6096438;29;20558;-91
2023/12/15 04:44:42;;;;;;;9.23;8.50;;;;;;;;;;6095360;29;20174;-91
2023/12/15 04:47:44;;;;;;;9.70;9.00;;;;;;;;;;6080523;29;20051;-91
2023/12/15 04:50:46;;;;;;;8.90;8.20;;;;;;;;;;6080185;29;20059;-91
2023/12/15 04:53:48;;;;;;;14.98;12.13;;;;;;;;;;6097051;29;20062;-91
2023/12/15 04:56:52;;;;;;;9.38;8.73;;;;;;;;;;6092758;29;20048;-91
2023/12/15 04:59:53;;;;;;;13.07;11.13;;;;;;;;;;6097218;29;20688;-92
2023/12/15 05:02:55;;;;;;;10.27;9.40;;;;;;;;;;6096981;29;20052;-91
2023/12/15 05:05:57;;;;;;;8.45;7.75;;;;;;;;;;6097263;29;20055;-91
2023/12/15 05:08:59;;;;;;;10.50;9.60;;;;;;;;;;6096977;29;20052;-92
2023/12/15 05:12:03;;;;;;;12.43;11.00;;;;;;;;;;6096673;29;20124;-93
2023/12/15 05:15:05;;;;;;;12.30;11.15;;;;;;;;;;6063207;29;20048;-92
2023/12/15 05:18:07;;;;;;;10.93;9.90;;;;;;;;;;6096779;29;20489;-94
2023/12/15 05:21:12;;;;;;;11.77;9.65;;;;;;;;;;6080932;29;20380;-92
2023/12/15 05:24:15;;;;;;;11.20;8.15;;;;;;;;;;6096963;29;20044;-92
2023/12/15 05:27:17;;;;;;;10.60;9.80;;;;;;;;;;6095259;29;20079;-93
2023/12/15 05:30:19;;;;;;;10.95;10.13;;;;;;;;;;6097236;29;20048;-92
2023/12/15 05:33:21;;;;;;;8.65;8.10;;;;;;;;;;6078213;29;20047;-92
2023/12/15 05:36:23;;;;;;;7.53;7.10;;;;;;;;;;6061101;29;20118;-93
2023/12/15 05:39:25;;;;;;;8.93;8.32;;;;;;;;;;6079191;29;20055;-92
2023/12/15 05:42:26;;;;;;;9.57;8.90;;;;;;;;;;6063962;29;20058;-93
2023/12/15 05:45:29;;;;;;;8.00;7.28;;;;;;;;;;6079952;29;20306;-92
2023/12/15 05:48:35;;;;;;;10.73;9.50;;;;;;;;;;6073275;29;20513;-93
2023/12/15 05:51:38;;;;;;;8.60;8.07;;;;;;;;;;6088772;29;20395;-93
2023/12/15 05:54:41;;;;;;;10.60;9.80;;;;;;;;;;6061728;29;20059;-93
2023/12/15 05:57:42;;;;;;;7.93;7.40;;;;;;;;;;6077470;29;20048;-93
2023/12/15 06:00:44;;;;;;;9.15;8.60;;;;;;;;;;6093457;29;20570;-93
2023/12/15 06:03:46;;;;;;;7.75;7.25;;;;;;;;;;6095162;29;20398;-93
2023/12/15 06:06:48;;;;;;;8.65;8.05;;;;;;;;;;6096260;29;20514;-94
2023/12/15 06:09:50;;;;;;;8.18;7.60;;;;;;;;;;6078642;29;20060;-95
2023/12/15 06:12:52;;;;;;;9.82;7.85;;;;;;;;;;6095716;29;20074;-94
2023/12/15 06:15:55;;;;;;;7.55;7.10;;;;;;;;;;6090576;29;20048;-95
2023/12/15 06:18:57;;;;;;;7.72;7.22;;;;;;;;;;6074895;29;20052;-93
2023/12/15 06:22:00;;;;;;;6.43;6.13;;;;;;;;;;6093573;29;20048;-94
2023/12/15 06:25:02;;;;;;;6.57;6.28;;;;;;;;;;6075405;29;20055;-95
2023/12/15 06:28:07;;;;;;;7.47;7.07;;;;;;;;;;6079493;29;20059;-95
2023/12/15 06:31:12;;;;;;;7.13;6.53;;;;;;;;;;6095846;29;20044;-94
2023/12/15 06:34:15;;;;;;;6.72;6.40;;;;;;;;;;6077904;29;20052;-92
2023/12/15 06:37:17;;;;;;;8.48;7.95;;;;;;;;;;6094543;29;20402;-90
2023/12/15 06:40:19;;;;;;;7.30;6.90;;;;;;;;;;6079265;29;20420;-90
2023/12/15 06:43:20;;;;;;;8.00;7.00;;;;;;;;;;6094221;29;20196;-90
2023/12/15 06:46:22;;;;;;;8.63;7.78;;;;;;;;;;6094716;29;20515;-90
2023/12/15 06:49:30;;;;;;;9.68;5.85;;;;;;;;;;6095242;29;20040;-90
2023/12/15 06:52:40;;;;;;;7.65;7.05;;;;;;;;;;6092019;29;20095;-90
2023/12/15 06:55:42;;;;;;;6.85;6.47;;;;;;;;;;6095022;29;20043;-91
2023/12/15 06:58:44;;;;;;;8.25;7.75;;;;;;;;;;6093163;29;20044;-90
2023/12/15 07:01:46;;;;;;;6.95;6.57;;;;;;;;;;6094767;29;20068;-91
2023/12/15 07:04:47;;;;;;;11.25;9.68;;;;;;;;;;6096824;29;20191;-91
2023/12/15 07:07:50;;;;;;;7.75;7.25;;;;;;;;;;6091633;29;20056;-91
2023/12/15 07:10:52;;;;;;;9.02;8.25;;;;;;;;;;6076552;29;20055;-90
2023/12/15 07:13:53;;;;;;;7.90;7.43;;;;;;;;;;6077527;29;20052;-91
2023/12/15 07:16:55;;;;;;;6.97;6.38;;;;;;;;;;6077100;29;20055;-90
2023/12/15 07:19:57;;;;;;;8.45;7.43;;;;;;;;;;6085635;29;20419;-91
2023/12/15 07:22:59;;;;;;;8.38;7.95;;;;;;;;;;6094459;29;20055;-91
2023/12/15 07:26:00;;;;;;;8.10;7.70;;;;;;;;;;6093913;29;20162;-91
2023/12/15 07:29:02;;;;;;;9.10;8.52;;;;;;;;;;6095927;29;20051;-91
2023/12/15 07:32:04;;;;;;;9.05;8.23;;;;;;;;;;6094322;29;20521;-92
2023/12/15 07:35:07;;;;;;;13.27;8.93;;;;;;;;;;6094926;29;20542;-92
2023/12/15 07:38:26;;;;;;;9.45;8.82;;;;;;;;;;6092901;29;20515;-92
2023/12/15 07:41:28;;;;;;;8.95;8.45;;;;;;;;;;6093943;29;20447;-92
2023/12/15 07:44:30;;;;;;;9.10;8.50;;;;;;;;;;6095011;29;20426;-92
2023/12/15 07:47:32;;;;;;;10.40;6.82;;;;;;;;;;6097680;29;20217;-93
2023/12/15 07:50:34;;;;;;;9.00;8.15;;;;;;;;;;6066294;29;20419;-92
2023/12/15 07:53:36;;;;;;;7.10;6.72;;;;;;;;;;6082294;29;20162;-93
2023/12/15 07:56:41;;;;;;;10.63;9.60;;;;;;;;;;6081166;29;20051;-93
2023/12/15 07:59:43;;;;;;;7.00;6.60;;;;;;;;;;6098796;29;20051;-93
2023/12/15 08:02:45;;;;;;;8.93;8.32;;;;;;;;;;6098382;29;20126;-93
2023/12/15 08:05:47;;;;;;;11.77;10.57;;;;;;;;;;6100834;29;20048;-93
2023/12/15 08:08:51;;;;;;;9.52;8.98;;;;;;;;;;6082227;29;20395;-93
2023/12/15 08:11:53;;;;;;;9.85;9.07;;;;;;;;;;6080349;29;20043;-93
2023/12/15 08:14:55;;;;;;;9.30;8.60;;;;;;;;;;6098004;29;20591;-93
2023/12/15 08:17:57;;;;;;;10.00;9.38;;;;;;;;;;6061565;29;20168;-95
2023/12/15 08:21:00;;;;;;;9.13;8.52;;;;;;;;;;6081342;29;20677;-95
2023/12/15 08:24:02;;;;;;;9.98;9.10;;;;;;;;;;6098633;29;20044;-95
2023/12/15 08:27:04;;;;;;;9.07;8.50;;;;;;;;;;6064278;29;20476;-95
2023/12/15 08:30:07;;;;;;;12.07;10.43;;;;;;;;;;6077219;29;20048;-92
2023/12/15 08:33:09;;;;;;;9.57;8.95;;;;;;;;;;6094802;29;20048;-92
2023/12/15 08:36:10;;;;;;;7.63;6.93;;;;;;;;;;6081407;29;20051;-92
2023/12/15 08:39:12;;;;;;;9.52;8.57;;;;;;;;;;6072725;29;20059;-92
2023/12/15 08:42:18;;;;;;;10.25;9.38;;;;;;;;;;6097965;29;20051;-92
2023/12/15 08:45:20;;;;;;;9.32;8.48;;;;;;;;;;6079410;29;20418;-92
2023/12/15 08:48:21;;;;;;;9.35;8.60;;;;;;;;;;6094346;29;20127;-92
2023/12/15 08:51:23;;;;;;;10.77;9.88;;;;;;;;;;6096023;29;20075;-92
2023/12/15 08:54:25;;;;;;;17.45;8.52;;;;;;;;;;6080289;29;20045;-92
2023/12/15 08:57:27;;;;;;;11.15;8.98;;;;;;;;;;6095911;29;20050;-92
2023/12/15 09:00:29;;;;;;;7.13;6.72;;;;;;;;;;6074014;29;20044;-92
2023/12/15 09:03:30;;;;;;;8.02;7.60;;;;;;;;;;6095957;29;20083;-92
2023/12/15 09:06:33;;;;;;;10.27;9.25;;;;;;;;;;6094976;29;20047;-92
2023/12/15 09:09:44;;;;;;;8.48;7.85;;;;;;;;;;6091915;29;20040;-92
2023/12/15 09:12:46;;;;;;;7.47;7.00;;;;;;;;;;6091619;29;20043;-93
2023/12/15 09:15:49;;;;;;;13.43;8.57;;;;;;;;;;6094655;29;20132;-92
2023/12/15 09:18:51;;;;;;;9.02;8.27;;;;;;;;;;6095607;29;20059;-93
2023/12/15 09:21:53;;;;;;;10.68;10.00;;;;;;;;;;6076696;29;20052;-93
2023/12/15 09:24:55;;;;;;;7.32;6.82;;;;;;;;;;6063988;29;20422;-93
2023/12/15 09:27:56;;;;;;;8.95;8.40;;;;;;;;;;6092868;29;20040;-92
2023/12/15 09:30:58;;;;;;;9.65;8.98;;;;;;;;;;6096358;29;20044;-92
2023/12/15 09:34:00;;;;;;;8.23;7.63;;;;;;;;;;6063408;29;20048;-93
2023/12/15 09:37:02;;;;;;;8.60;8.10;;;;;;;;;;6093203;29;20511;-93
2023/12/15 09:40:04;;;;;;;9.23;8.63;;;;;;;;;;6073606;29;20054;-93
2023/12/15 09:43:06;;;;;;;11.05;8.35;;;;;;;;;;6059845;29;20180;-93
2023/12/15 09:46:08;;;;;;;9.05;8.48;;;;;;;;;;6067485;29;20048;-93
2023/12/15 09:49:17;;;;;;;8.15;7.70;;;;;;;;;;6078475;29;20482;-93
2023/12/15 09:52:20;;;;;;;9.27;7.95;;;;;;;;;;6074012;29;20045;-93
2023/12/15 09:55:23;;;;;;;7.40;7.07;;;;;;;;;;6090592;29;20059;-94
2023/12/15 09:58:25;;;;;;;9.32;8.70;;;;;;;;;;6075643;29;20414;-93
2023/12/15 10:01:27;;;;;;;9.63;8.93;;;;;;;;;;6092544;29;20553;-94
2023/12/15 10:04:29;;;;;;;9.85;9.00;;;;;;;;;;6093064;29;21156;-92
2023/12/15 10:07:31;;;;;;;8.65;7.95;;;;;;;;;;6093414;29;20463;-94
2023/12/15 10:10:34;;;;;;;8.88;8.27;;;;;;;;;;6077300;29;20459;-94
2023/12/15 10:13:39;;;;;;;9.82;9.05;;;;;;;;;;6093466;29;20397;-93
2023/12/15 10:16:43;;;;;;;9.05;8.48;;;;;;;;;;6093884;29;20052;-94
2023/12/15 10:19:45;;;;;;;9.88;9.07;;;;;;;;;;6093127;29;20040;-94
2023/12/15 10:22:47;;;;;;;8.57;8.07;;;;;;;;;;6087346;29;20048;-94
2023/12/15 10:25:49;;;;;;;9.57;6.88;;;;;;;;;;6092624;29;20558;-94
2023/12/15 10:28:52;;;;;;;10.30;9.55;;;;;;;;;;6075435;29;20060;-95
2023/12/15 10:31:54;;;;;;;11.05;10.15;;;;;;;;;;6090164;29;20522;-95
2023/12/15 10:35:00;;;;;;;8.90;8.38;;;;;;;;;;6093531;29;20091;-94
2023/12/15 10:38:02;;;;;;;12.30;8.88;;;;;;;;;;6074263;29;20059;-95
2023/12/15 10:41:04;;;;;;;9.55;8.70;;;;;;;;;;6092945;29;21933;-95
2023/12/15 10:44:07;;;;;;;9.75;8.98;;;;;;;;;;6093541;29;20130;-94
2023/12/15 10:47:09;;;;;;;9.07;8.27;;;;;;;;;;6092324;29;20049;-95
2023/12/15 10:50:12;;;;;;;8.52;7.82;;;;;;;;;;6092613;29;20048;-94
2023/12/15 10:53:17;;;;;;;11.85;10.70;;;;;;;;;;6076296;29;20075;-95
2023/12/15 10:56:19;;;;;;;7.55;7.05;;;;;;;;;;6093121;29;20523;-95
2023/12/15 10:59:21;;;;;;;9.48;7.55;;;;;;;;;;6091370;29;20434;-95
2023/12/15 11:02:33;;;;;;;9.80;9.02;;;;;;;;;;6091661;29;20070;-95
2023/12/15 11:05:35;;;;;;;16.73;8.25;;;;;;;;;;6063533;29;20051;-95
2023/12/15 11:08:40;;;;;;;11.00;8.95;;;;;;;;;;6082662;29;20043;-95
2023/12/15 11:11:43;;;;;;;7.88;7.38;;;;;;;;;;6092777;29;20411;-96
2023/12/15 11:14:50;;;;;;;8.07;7.65;;;;;;;;;;6089298;29;20047;-95
2023/12/15 11:18:02;;;;;;;9.15;8.43;;;;;;;;;;6074773;29;20494;-95
2023/12/15 11:21:08;;;;;;;6.88;6.43;;;;;;;;;;6092329;29;20048;-95
2023/12/15 11:24:10;;;;;;;7.57;7.18;;;;;;;;;;6098073;29;20521;-95
2023/12/15 11:27:13;;;;;;;8.32;7.78;;;;;;;;;;6076157;29;20087;-96
2023/12/15 11:30:44;;;;;;;8.05;7.40;;;;;;;;;;6080981;29;20040;-96
2023/12/15 11:33:46;;;;;;;7.65;7.13;;;;;;;;;;6098557;29;20044;-95
2023/12/15 11:36:51;;;;;;;8.00;7.40;;;;;;;;;;6078592;29;20059;-95
2023/12/15 11:39:54;;;;;;;7.28;6.88;;;;;;;;;;6080741;29;20063;-96
2023/12/15 11:42:59;;;;;;;7.88;7.47;;;;;;;;;;6082326;29;20040;-95
2023/12/15 11:46:03;;;;;;;11.70;8.85;;;;;;;;;;6093676;29;20112;-96
2023/12/15 11:49:04;;;;;;;14.27;8.55;;;;;;;;;;6080800;29;20048;-95
2023/12/15 11:52:10;;;;;;;6.05;5.85;;;;;;;;;;6098872;29;20055;-95
2023/12/15 11:55:13;;;;;;;8.30;7.30;;;;;;;;;;6078182;29;20087;-95
2023/12/15 11:58:22;;;;;;;7.43;7.10;;;;;;;;;;6094937;29;20422;-95
2023/12/15 12:01:24;;;;;;;6.60;6.13;;;;;;;;;;6097640;29;20126;-96
2023/12/15 12:04:28;;;;;;;9.45;8.88;;;;;;;;;;6090577;29;20386;-96
2023/12/15 12:07:30;;;;;;;7.03;6.63;;;;;;;;;;6079181;29;20044;-96
2023/12/15 12:10:33;;;;;;;6.68;6.28;;;;;;;;;;6081387;29;20423;-96
2023/12/15 12:13:36;;;;;;;7.85;7.20;;;;;;;;;;6064780;29;20139;-96
2023/12/15 12:16:38;;;;;;;8.27;7.75;;;;;;;;;;6097593;29;20389;-96
2023/12/15 12:19:45;;;;;;;7.90;7.40;;;;;;;;;;6078070;29;20134;-96
2023/12/15 12:22:47;;;;;;;6.90;6.50;;;;;;;;;;6078703;29;20056;-96
2023/12/15 12:25:50;;;;;;;20.38;7.95;;;;;;;;;;6077602;29;20056;-96
2023/12/15 12:28:53;;;;;;;9.45;6.50;;;;;;;;;;6094484;29;20048;-96
2023/12/15 12:31:58;;;;;;;7.45;7.05;;;;;;;;;;6078284;29;20639;-96
2023/12/15 12:35:02;;;;;;;6.82;6.45;;;;;;;;;;6077758;29;20187;-96
2023/12/15 12:38:08;;;;;;;7.68;7.22;;;;;;;;;;6078807;29;20753;-96
2023/12/15 12:41:13;;;;;;;7.00;6.22;;;;;;;;;;6093713;29;20432;-96
2023/12/15 12:44:15;;;;;;;7.05;6.57;;;;;;;;;;6078557;29;20048;-96
2023/12/15 12:47:24;;;;;;;7.43;7.03;;;;;;;;;;6082596;29;20055;-96
2023/12/15 12:50:33;;;;;;;7.25;6.82;;;;;;;;;;6081716;29;20439;-96
2023/12/15 12:53:36;;;;;;;6.57;6.25;;;;;;;;;;6065101;29;20083;-96
2023/12/15 12:56:38;;;;;;;6.38;5.82;;;;;;;;;;6066220;29;20147;-96
2023/12/15 12:59:59;;;;;;;15.00;7.00;;;;;;;;;;6088336;29;20078;-96
2023/12/15 13:03:03;;;;;;;5.15;4.95;;;;;;;;;;6080748;29;20047;-96
2023/12/15 13:06:47;;;;;;;7.40;6.63;;;;;;;;;;6078722;29;20071;-96
2023/12/15 13:09:55;;;;;;;11.32;8.57;;;;;;;;;;6062186;29;20184;-96
2023/12/15 13:13:06;;;;;;;10.52;9.50;;;;;;;;;;6079456;29;20052;-96
2023/12/15 13:16:10;;;;;;;7.35;6.65;;;;;;;;;;6097785;29;20044;-96
2023/12/15 13:19:24;;;;;;;6.70;6.30;;;;;;;;;;6068500;29;20406;-96
2023/12/15 13:22:28;;;;;;;7.70;7.30;;;;;;;;;;6069623;29;20143;-96
2023/12/15 13:25:50;;;;;;;6.53;6.28;;;;;;;;;;6082575;29;20103;-96
2023/12/15 13:28:56;;;;;;;7.30;6.80;;;;;;;;;;6077922;29;20426;-96
2023/12/15 13:32:09;;;;;;;7.95;7.30;;;;;;;;;;6080453;29;20044;-96
2023/12/15 13:35:16;;;;;;;8.95;8.20;;;;;;;;;;6097276;29;20493;-96
2023/12/15 13:38:32;;;;;;;7.28;6.38;;;;;;;;;;6097300;29;20048;-96
2023/12/15 13:41:41;;;;;;;7.30;6.80;;;;;;;;;;6073664;29;20055;-96
2023/12/15 13:44:43;;;;;;;8.25;7.55;;;;;;;;;;6058600;29;20528;-96
2023/12/15 13:47:49;;;;;;;8.30;7.70;;;;;;;;;;6077064;29;20107;-96
2023/12/15 13:50:54;;;;;;;7.93;7.22;;;;;;;;;;6095022;29;20052;-96
2023/12/15 13:54:00;;;;;;;7.07;6.75;;;;;;;;;;6081459;29;20063;-96
2023/12/15 13:57:10;;;;;;;13.13;8.25;;;;;;;;;;6082546;29;20601;-96
2023/12/15 14:00:24;;;;;;;19.38;8.02;;;;;;;;;;6072314;29;20566;-96
2023/12/15 14:03:35;;;;;;;8.18;7.45;;;;;;;;;;6078232;29;20055;-96
2023/12/15 14:06:41;;;;;;;8.00;7.40;;;;;;;;;;6078597;29;20048;-96
2023/12/15 14:09:46;;;;;;;8.20;7.78;;;;;;;;;;6096717;29;20051;-96
2023/12/15 14:12:50;;;;;;;8.02;7.43;;;;;;;;;;6079880;29;20051;-96
2023/12/15 14:15:53;;;;;;;12.45;7.38;;;;;;;;;;6096048;29;20051;-96
2023/12/15 14:19:09;;;;;;;8.50;7.97;;;;;;;;;;6076831;29;20056;-96
2023/12/15 14:22:17;;;;;;;5.78;5.57;;;;;;;;;;6096490;29;20134;-96
2023/12/15 14:25:40;;;;;;;8.77;6.20;;;;;;;;;;6070678;29;20103;-96
2023/12/15 14:28:45;;;;;;;6.93;6.40;;;;;;;;;;6095930;29;20048;-96
2023/12/15 14:31:52;;;;;;;11.50;8.27;;;;;;;;;;6064776;29;20048;-96
2023/12/15 14:34:59;;;;;;;6.90;6.50;;;;;;;;;;6077382;29;20141;-96
2023/12/15 14:38:07;;;;;;;6.30;6.00;;;;;;;;;;6068277;29;20044;-96
2023/12/15 14:41:13;;;;;;;8.90;6.38;;;;;;;;;;6080801;29;20055;-96
2023/12/15 14:44:20;;;;;;;9.60;7.38;;;;;;;;;;6083364;29;20042;-96
2023/12/15 14:47:28;;;;;;;6.57;6.22;;;;;;;;;;6104331;29;20059;-96
2023/12/15 14:50:37;;;;;;;7.25;6.80;;;;;;;;;;6064752;29;20055;-96
2023/12/15 14:53:48;;;;;;;12.98;8.15;;;;;;;;;;6072665;29;20134;-96
2023/12/15 14:56:53;;;;;;;7.03;6.72;;;;;;;;;;6107395;29;20066;-96
2023/12/15 14:59:56;;;;;;;8.15;7.40;;;;;;;;;;6105907;29;20055;-96
2023/12/15 15:03:04;;;;;;;7.07;6.75;;;;;;;;;;6100092;29;20427;-96
2023/12/15 15:06:13;;;;;;;6.78;6.38;;;;;;;;;;6085042;29;20051;-96
2023/12/15 15:09:40;;;;;;;;;;;;;;;;;;6089101;29;20312;-96
2023/12/15 15:12:55;;;;;;;7.38;6.95;;;;;;;;;;6105388;29;20354;-96
2023/12/15 15:16:14;;;;;;;10.57;7.38;;;;;;;;;;6089989;29;20119;-96
2023/12/15 15:19:57;;;;;;;6.60;6.28;;;;;;;;;;6103262;29;20048;-96
2023/12/15 15:23:11;;;;;;;6.93;6.53;;;;;;;;;;6103182;29;20415;-96
2023/12/15 15:26:38;;;;;;;7.70;7.13;;;;;;;;;;6094737;29;20470;-96
2023/12/15 15:30:44;;;;;;;9.18;8.60;;;;;;;;;;6084923;29;20506;-96
2023/12/15 15:42:13;;;;;;;;;;;;;;;;;;;;;
2023/12/15 15:46:00;;;;;;;;;;;;;;;;;;;;;
2023/12/15 15:49:56;;;;;;;8.05;7.57;;;;;;;;;;5968878;29;20055;-96
2023/12/15 15:58:10;;;;;;;9.07;7.70;;;;;;;;;;5959358;29;20058;-96
2023/12/15 16:02:10;;;;;;;;;;;;;;;;;;;;;
2023/12/15 16:06:06;;;;;;;7.32;6.93;;;;;;;;;;5980306;29;20418;-96
2023/12/15 16:09:50;;;;;;;9.30;8.60;;;;;;;;;;5976281;29;20062;-96
2023/12/15 16:13:40;;;;;;;9.30;8.73;;;;;;;;;;5971685;29;20593;-96
2023/12/15 16:17:07;;;;;;;9.38;8.57;;;;;;;;;;5951177;29;20079;-96
2023/12/15 16:20:42;;;;;;;9.40;8.40;;;;;;;;;;5960198;29;20055;-96
2023/12/15 16:31:42;;;;;;;9.27;8.63;;;;;;;;;;6066694;29;20098;-96
2023/12/15 16:35:13;;;;;;;7.95;7.45;;;;;;;;;;6064940;29;20033;-96
2023/12/15 16:38:55;;;;;;;7.85;7.45;;;;;;;;;;6044136;29;20052;-96
2023/12/15 16:42:10;;;;;;;8.65;8.07;;;;;;;;;;6057641;29;20036;-96
2023/12/15 16:45:31;;;;;;;7.82;7.38;;;;;;;;;;6068794;29;20045;-96
2023/12/15 16:48:54;;;;;;;8.40;7.82;;;;;;;;;;6055246;29;20547;-96
2023/12/15 16:52:03;;;;;;;8.02;7.63;;;;;;;;;;6064440;29;20072;-96
2023/12/15 16:55:13;;;;;;;7.90;7.50;;;;;;;;;;6050611;29;20096;-96
2023/12/15 16:58:33;;;;;;;10.55;9.77;;;;;;;;;;6060080;29;20286;-96
2023/12/15 17:01:38;;;;;;;15.43;10.20;;;;;;;;;;6047836;29;20548;-96
2023/12/15 17:05:01;;;;;;;7.95;7.47;;;;;;;;;;6069151;29;20308;-96
2023/12/15 17:08:11;;;;;;;8.90;8.38;;;;;;;;;;6061565;29;20400;-96
2023/12/15 17:11:17;;;;;;;11.25;8.55;;;;;;;;;;6052857;29;20515;-96
2023/12/15 17:14:34;;;;;;;8.63;7.85;;;;;;;;;;6054479;29;20204;-96
2023/12/15 17:17:46;;;;;;;7.95;7.43;;;;;;;;;;6044226;29;20044;-96
2023/12/15 17:21:05;;;;;;;8.02;7.57;;;;;;;;;;6049745;29;20068;-96
2023/12/15 17:24:08;;;;;;;10.10;7.82;;;;;;;;;;6042527;29;20136;-96
2023/12/15 17:27:11;;;;;;;7.38;6.85;;;;;;;;;;6056475;29;20045;-96
2023/12/15 17:30:19;;;;;;;7.40;7.00;;;;;;;;;;6073242;29;20053;-96
2023/12/15 17:33:22;;;;;;;7.93;7.53;;;;;;;;;;6060796;29;20053;-96
2023/12/15 17:36:25;;;;;;;14.25;8.55;;;;;;;;;;6059096;29;20068;-96
2023/12/15 17:39:27;;;;;;;8.75;8.10;;;;;;;;;;6046556;29;20097;-96
2023/12/15 17:42:29;;;;;;;8.75;8.25;;;;;;;;;;6055188;29;20495;-96
2023/12/15 17:45:42;;;;;;;9.55;8.85;;;;;;;;;;6055595;29;20243;-96
2023/12/15 17:48:53;;;;;;;7.88;7.20;;;;;;;;;;6059441;29;20445;-96
2023/12/15 17:51:57;;;;;;;8.65;8.15;;;;;;;;;;6061119;29;20045;-96
2023/12/15 17:55:02;;;;;;;9.68;9.07;;;;;;;;;;6059062;29;20100;-96
2023/12/15 17:58:19;;;;;;;7.60;6.95;;;;;;;;;;6064512;29;20121;-96
2023/12/15 18:01:24;;;;;;;8.77;7.97;;;;;;;;;;6065502;29;20056;-96
2023/12/15 18:04:30;;;;;;;7.50;6.93;;;;;;;;;;6063104;29;20070;-96
2023/12/15 18:07:33;;;;;;;7.97;7.07;;;;;;;;;;6056717;29;20084;-96
2023/12/15 18:10:37;;;;;;;13.27;10.60;;;;;;;;;;6058178;29;20041;-96
2023/12/15 18:13:45;;;;;;;13.10;8.85;;;;;;;;;;6061429;29;20052;-96
2023/12/15 18:16:49;;;;;;;9.02;8.20;;;;;;;;;;6053279;29;20393;-96
2023/12/15 18:19:54;;;;;;;7.28;6.93;;;;;;;;;;6056358;29;20506;-96
2023/12/15 18:22:56;;;;;;;10.88;8.27;;;;;;;;;;6046883;29;20045;-96
2023/12/15 18:25:59;;;;;;;10.10;8.95;;;;;;;;;;6063836;29;20053;-96
2023/12/15 18:29:07;;;;;;;9.15;8.45;;;;;;;;;;6078642;29;20057;-96
2023/12/15 18:32:16;;;;;;;11.55;10.13;;;;;;;;;;6061325;29;20059;-96
2023/12/15 18:35:25;;;;;;;9.85;9.07;;;;;;;;;;6061092;29;20060;-96
2023/12/15 18:38:33;;;;;;;8.75;7.82;;;;;;;;;;6048808;29;20049;-96
2023/12/15 18:41:40;;;;;;;9.48;8.10;;;;;;;;;;6061770;29;20579;-95
2023/12/15 18:45:42;;;;;;;;;;;;;;;;;;;;;
2023/12/15 18:49:15;;;;;;;9.82;9.00;;;;;;;;;;6058474;29;20144;-96
2023/12/15 18:52:53;;;;;;;8.32;7.90;;;;;;;;;;6063676;29;20089;-96
2023/12/15 18:56:38;;;;;;;8.55;7.95;;;;;;;;;;6054472;29;20052;-96
2023/12/15 19:00:28;;;;;;;11.65;8.43;;;;;;;;;;6058567;29;20072;-96